»·PEaware :: WAT175 KATL-KCAK

WAT175 :: KATL-KCAK

FLIGHT INFORMATION

Flight Status: Arrived
Operator:
Walker Air Transport
More flights by this operator :: More flights under this callsign
Pilot: Michael C. (27126)
Aircraft: BOEING 737-800
(B738)
More flights by this aircraft type
Origin: KATL Hartsfield-Jackson Atlanta
United States
Destination: KCAK Akron-Canton Regl
United States
More flights between these airports :: More routes between these airports
Route: CUTTN2 HANKO GAD RQZ BNA J39 ROD ONMME CRWDR HUUVR HUUVR1
File this flight plan on PilotEdge
Remarks: RMK / SIMBRIEF
Altitude:
(Current/Filed)
35,000ft
Speed:
(Current/Filed)
459kts
Departed: 09-Aug-20 05:39 AM
Arrived: 09-Aug-20 07:12 AM
Distance/Time
Traveled:
459nm/1:33
Distance/Time
To Go:
Arrived

Flight Plot

Page will automatically refresh every two minutes.

Flight plan parsing failed; only flown route is shown


Map Options




Map Legend


Flown Route
Filed Route
Departure Airport
Arrival Airport
Navaid (VOR, NDB)
Fix

Horizontal Profiles

Position Reports

Time Latitude Longitude Heading Altitude Ground
Speed
09-Aug-20 05:17 33.643044 -84.431972 271 976ft 0kts
09-Aug-20 05:18 33.643044 -84.431972 271 975ft 0kts
09-Aug-20 05:19 33.643044 -84.431972 271 975ft 0kts
09-Aug-20 05:20 33.643044 -84.431972 271 975ft 0kts
09-Aug-20 05:21 33.643044 -84.431972 271 975ft 0kts
09-Aug-20 05:22 33.643044 -84.431972 271 975ft 0kts
09-Aug-20 05:23 33.643044 -84.431972 271 975ft 0kts
09-Aug-20 05:24 33.643044 -84.431972 271 975ft 0kts
09-Aug-20 05:25 33.643044 -84.431972 271 975ft 0kts
09-Aug-20 05:26 33.643044 -84.431972 271 975ft 0kts
09-Aug-20 05:27 33.643044 -84.431972 271 975ft 0kts
09-Aug-20 05:28 33.643032 -84.431761 271 975ft 2kts
09-Aug-20 05:29 33.642776 -84.431267 357 975ft 0kts
09-Aug-20 05:30 33.642706 -84.431269 0 975ft 0kts
09-Aug-20 05:31 33.643484 -84.431303 359 975ft 11kts
09-Aug-20 05:32 33.645442 -84.429228 88 975ft 13kts
09-Aug-20 05:33 33.645431 -84.426664 90 975ft 15kts
09-Aug-20 05:34 33.645441 -84.421979 90 975ft 15kts
09-Aug-20 05:35 33.645431 -84.415566 90 975ft 22kts
09-Aug-20 05:36 33.645539 -84.408128 72 975ft 19kts
09-Aug-20 05:37 33.646797 -84.406242 272 975ft 7kts
09-Aug-20 05:38 33.646688 -84.447692 269 1890ft 195kts
09-Aug-20 05:39 33.656658 -84.521820 285 4343ft 257kts
09-Aug-20 05:40 33.674763 -84.608565 281 7649ft 279kts
09-Aug-20 05:41 33.690217 -84.701960 281 10600ft 302kts
09-Aug-20 05:42 33.714510 -84.814713 288 11749ft 376kts
09-Aug-20 05:43 33.747699 -84.936482 287 14428ft 388kts
09-Aug-20 05:44 33.781386 -85.061653 287 16903ft 399kts
09-Aug-20 05:45 33.815138 -85.190899 283 19069ft 411kts
09-Aug-20 05:46 33.824756 -85.331052 273 20968ft 426kts
09-Aug-20 05:47 33.830393 -85.458591 273 22541ft 436kts
09-Aug-20 05:48 33.840982 -85.605622 281 24170ft 446kts
09-Aug-20 05:49 33.875040 -85.751168 288 25676ft 456kts
09-Aug-20 05:50 33.918314 -85.895840 290 27257ft 459kts
09-Aug-20 05:51 33.971684 -86.034522 305 29024ft 456kts
09-Aug-20 05:52 34.067075 -86.134242 326 30661ft 453kts
09-Aug-20 05:53 34.171077 -86.210238 329 32101ft 451kts
09-Aug-20 05:54 34.288365 -86.252983 5 33389ft 453kts
09-Aug-20 05:55 34.412633 -86.224916 10 34630ft 451kts
09-Aug-20 05:56 34.535938 -86.195356 10 35227ft 451kts
09-Aug-20 05:57 34.657655 -86.166130 10 35229ft 446kts
09-Aug-20 05:58 34.779848 -86.136755 9 35231ft 448kts
09-Aug-20 05:59 34.901763 -86.107400 9 35237ft 448kts
09-Aug-20 06:00 35.023860 -86.078037 9 35240ft 445kts
09-Aug-20 06:01 35.142560 -86.050537 9 35239ft 435kts
09-Aug-20 06:02 35.262146 -86.021623 10 35237ft 438kts
09-Aug-20 06:03 35.381044 -85.992782 9 35238ft 437kts
09-Aug-20 06:04 35.500332 -85.963809 10 35237ft 437kts
09-Aug-20 06:05 35.619279 -85.934876 9 35236ft 437kts
09-Aug-20 06:06 35.738199 -85.905908 9 35237ft 437kts
09-Aug-20 06:07 35.857465 -85.876813 9 35237ft 437kts
09-Aug-20 06:08 35.976246 -85.847794 9 35237ft 437kts
09-Aug-20 06:09 36.096708 -85.818331 9 35238ft 450kts
09-Aug-20 06:10 36.221017 -85.787880 9 35236ft 456kts
09-Aug-20 06:11 36.344734 -85.757513 9 35237ft 454kts
09-Aug-20 06:12 36.468480 -85.727096 9 35236ft 455kts
09-Aug-20 06:13 36.592056 -85.696672 9 35231ft 454kts
09-Aug-20 06:14 36.715793 -85.666161 9 35228ft 454kts
09-Aug-20 06:15 36.839950 -85.635481 9 35238ft 453kts
09-Aug-20 06:16 36.962505 -85.605163 9 35251ft 455kts
09-Aug-20 06:17 37.086825 -85.574360 8 35256ft 455kts
09-Aug-20 06:18 37.211592 -85.543403 8 35263ft 459kts
09-Aug-20 06:19 37.336372 -85.512379 8 35269ft 457kts
09-Aug-20 06:20 37.460958 -85.481357 8 35273ft 458kts
09-Aug-20 06:21 37.585629 -85.450261 8 35238ft 458kts
09-Aug-20 06:22 37.710576 -85.419044 8 35230ft 458kts
09-Aug-20 06:23 37.835237 -85.387847 8 35228ft 458kts
09-Aug-20 06:24 37.959654 -85.356657 8 35227ft 458kts
09-Aug-20 06:25 38.084858 -85.325202 8 35224ft 458kts
09-Aug-20 06:26 38.209811 -85.293751 8 35224ft 458kts
09-Aug-20 06:27 38.334610 -85.262289 8 35226ft 458kts
09-Aug-20 06:28 38.459150 -85.230844 8 35232ft 458kts
09-Aug-20 06:29 38.584094 -85.199251 8 35247ft 458kts
09-Aug-20 06:30 38.706625 -85.152881 20 35244ft 463kts
09-Aug-20 06:31 38.822713 -85.081311 24 35238ft 466kts
09-Aug-20 06:32 38.937427 -85.003941 25 35231ft 467kts
09-Aug-20 06:33 39.052086 -84.924646 24 35228ft 468kts
09-Aug-20 06:34 39.166439 -84.844653 24 35228ft 468kts
09-Aug-20 06:35 39.280983 -84.764306 24 35233ft 473kts
09-Aug-20 06:37 39.396741 -84.682797 24 35237ft 473kts
09-Aug-20 06:38 39.511797 -84.601487 24 35238ft 473kts
09-Aug-20 06:39 39.626891 -84.519846 24 35238ft 473kts
09-Aug-20 06:40 39.742202 -84.437738 24 35239ft 473kts
09-Aug-20 06:41 39.857339 -84.355439 24 35246ft 473kts
09-Aug-20 06:42 39.972070 -84.272711 25 35244ft 473kts
09-Aug-20 06:43 40.087170 -84.189106 25 35245ft 473kts
09-Aug-20 06:44 40.202036 -84.105821 25 35245ft 473kts
09-Aug-20 06:45 40.298645 -83.988466 52 35247ft 487kts
09-Aug-20 06:46 40.368418 -83.835542 57 35247ft 489kts
09-Aug-20 06:47 40.432704 -83.679245 58 35240ft 473kts
09-Aug-20 06:48 40.491454 -83.532516 58 35249ft 457kts
09-Aug-20 06:49 40.550705 -83.383088 59 34759ft 467kts
09-Aug-20 06:50 40.610990 -83.230007 59 31511ft 473kts
09-Aug-20 06:51 40.666759 -83.078123 68 29287ft 454kts
09-Aug-20 06:52 40.696844 -82.920586 81 27153ft 438kts
09-Aug-20 06:53 40.702563 -82.765388 86 25090ft 413kts
09-Aug-20 06:54 40.701981 -82.615855 88 22969ft 401kts
09-Aug-20 06:55 40.699809 -82.471984 88 20980ft 387kts
09-Aug-20 06:55 40.697631 -82.355658 88 19342ft 375kts
09-Aug-20 06:57 40.694222 -82.198246 89 17099ft 361kts
09-Aug-20 06:57 40.691783 -82.089875 89 15532ft 351kts
09-Aug-20 06:59 40.688295 -81.941404 90 13108ft 344kts
09-Aug-20 06:59 40.685669 -81.838108 90 11571ft 334kts
09-Aug-20 07:00 40.691241 -81.720968 68 9997ft 296kts
09-Aug-20 07:01 40.719845 -81.629023 66 9042ft 276kts
09-Aug-20 07:02 40.755727 -81.540624 47 7682ft 272kts
09-Aug-20 07:03 40.804174 -81.471861 45 6525ft 269kts
09-Aug-20 07:04 40.811830 -81.460916 46 6343ft 268kts
09-Aug-20 07:05 40.858757 -81.393418 45 5741ft 226kts
09-Aug-20 07:06 40.904792 -81.333549 43 3994ft 238kts
09-Aug-20 07:07 40.951844 -81.290337 333 2992ft 180kts
09-Aug-20 07:08 40.976969 -81.335417 257 2988ft 157kts
09-Aug-20 07:09 40.953692 -81.386375 227 2239ft 163kts
09-Aug-20 07:10 40.924388 -81.429213 229 1351ft 157kts
09-Aug-20 07:11 40.906398 -81.455370 229 1178ft 27kts
09-Aug-20 07:12 40.905642 -81.456420 226 1178ft 21kts
09-Aug-20 07:13 40.904687 -81.455756 58 1178ft 10kts
09-Aug-20 07:14 40.908802 -81.449760 47 1178ft 34kts
09-Aug-20 07:15 40.910715 -81.445023 93 1178ft 22kts
09-Aug-20 07:16 40.911880 -81.439384 23 1178ft 19kts
09-Aug-20 07:17 40.914371 -81.437540 74 1178ft 0kts
09-Aug-20 07:18 40.928613 -81.423158 228 1456ft 157kts
09-Aug-20 07:19 40.910022 -81.451013 216 1178ft 82kts

Navigation Log

Ident Type
Flight plan parsing failed, navigation log unavailable